createdAt,value
2024-04-16T00:00:10.118Z,935.10
2024-04-16T00:00:20.525Z,935.14
2024-04-16T00:00:30.929Z,935.11
2024-04-16T00:00:41.348Z,935.08
2024-04-16T00:00:51.785Z,935.08
2024-04-16T00:01:02.260Z,935.12
2024-04-16T00:01:12.548Z,935.12
2024-04-16T00:01:22.825Z,935.12
2024-04-16T00:01:33.112Z,935.10
2024-04-16T00:01:43.375Z,935.07
2024-04-16T00:01:53.985Z,935.09
2024-04-16T00:02:04.342Z,935.10
2024-04-16T00:02:14.533Z,935.10
2024-04-16T00:02:24.925Z,935.13
2024-04-16T00:02:35.319Z,935.11
2024-04-16T00:02:45.766Z,935.11
2024-04-16T00:02:56.197Z,935.09
2024-04-16T00:03:06.623Z,935.13
2024-04-16T00:03:17.043Z,935.14
2024-04-16T00:03:27.486Z,935.12
2024-04-16T00:03:37.968Z,935.14
2024-04-16T00:03:48.158Z,935.13
2024-04-16T00:03:58.652Z,935.12
2024-04-16T00:04:08.875Z,935.13
2024-04-16T00:04:19.368Z,935.12
2024-04-16T00:04:29.592Z,935.12
2024-04-16T00:04:40.162Z,935.19
2024-04-16T00:04:50.392Z,935.14
2024-04-16T00:05:00.916Z,935.15
2024-04-16T00:05:11.466Z,935.13
2024-04-16T00:05:21.609Z,935.15
2024-04-16T00:05:31.931Z,935.18
2024-04-16T00:05:42.099Z,935.15
2024-04-16T00:05:52.363Z,935.17
2024-04-16T00:06:02.768Z,935.17
2024-04-16T00:06:13.190Z,935.15
2024-04-16T00:06:23.599Z,935.16
2024-04-16T00:06:34.015Z,935.14
2024-04-16T00:06:44.486Z,935.13
2024-04-16T00:06:54.921Z,935.14
2024-04-16T00:07:05.395Z,935.15
2024-04-16T00:07:15.823Z,935.14
2024-04-16T00:07:26.241Z,935.12
2024-04-16T00:07:36.676Z,935.11
2024-04-16T00:07:47.099Z,935.13
2024-04-16T00:07:57.486Z,935.15
2024-04-16T00:08:07.878Z,935.15
2024-04-16T00:08:18.269Z,935.16
2024-04-16T00:08:28.674Z,935.14
2024-04-16T00:08:39.061Z,935.12
2024-04-16T00:08:49.480Z,935.08
2024-04-16T00:08:59.896Z,935.09
2024-04-16T00:09:10.310Z,935.10
2024-04-16T00:09:20.753Z,935.09
2024-04-16T00:09:31.157Z,935.09
2024-04-16T00:09:41.561Z,935.10
2024-04-16T00:09:51.986Z,935.12
2024-04-16T00:10:02.489Z,935.12
2024-04-16T00:10:12.809Z,935.10
2024-04-16T00:10:23.081Z,935.09
2024-04-16T00:10:33.535Z,935.09
2024-04-16T00:10:44.073Z,935.11
2024-04-16T00:10:54.411Z,935.06
2024-04-16T00:11:04.640Z,935.04
2024-04-16T00:11:14.916Z,935.06
2024-04-16T00:11:25.377Z,935.05
2024-04-16T00:11:35.810Z,935.04
2024-04-16T00:11:46.236Z,935.04
2024-04-16T00:11:56.636Z,935.03
2024-04-16T00:12:07.062Z,935.03
2024-04-16T00:12:17.467Z,935.03
2024-04-16T00:12:27.853Z,935.04
2024-04-16T00:12:38.281Z,935.07
2024-04-16T00:12:48.742Z,935.06
2024-04-16T00:12:59.190Z,935.04
2024-04-16T00:13:09.650Z,935.04
2024-04-16T00:13:20.084Z,935.04
2024-04-16T00:13:30.592Z,935.03
2024-04-16T00:13:40.877Z,935.05
2024-04-16T00:13:51.327Z,935.08
2024-04-16T00:14:01.699Z,935.09
2024-04-16T00:14:12.107Z,935.07
2024-04-16T00:14:22.491Z,935.07
2024-04-16T00:14:32.923Z,935.08
2024-04-16T00:14:43.377Z,935.06
2024-04-16T00:14:53.763Z,935.06
2024-04-16T00:15:04.164Z,935.06
2024-04-16T00:15:14.556Z,935.05
2024-04-16T00:15:24.960Z,935.05
2024-04-16T00:15:35.356Z,935.05
2024-04-16T00:15:45.743Z,935.06
2024-04-16T00:15:56.154Z,935.03
2024-04-16T00:16:06.601Z,935.03
2024-04-16T00:16:17.051Z,935.02
2024-04-16T00:16:27.476Z,935.04
2024-04-16T00:16:38.092Z,935.05
2024-04-16T00:16:48.458Z,935.06
2024-04-16T00:16:58.678Z,935.09
2024-04-16T00:17:08.972Z,935.11
2024-04-16T00:17:19.388Z,935.12
2024-04-16T00:17:29.921Z,935.15
2024-04-16T00:17:40.256Z,935.14
2024-04-16T00:17:50.778Z,935.14
2024-04-16T00:18:00.844Z,935.13
2024-04-16T00:18:11.317Z,935.13
2024-04-16T00:18:21.742Z,935.16
2024-04-16T00:18:32.132Z,935.18
2024-04-16T00:18:42.545Z,935.15
2024-04-16T00:18:52.970Z,935.11
2024-04-16T00:19:03.504Z,935.07
2024-04-16T00:19:13.756Z,935.06
2024-04-16T00:19:24.198Z,935.07
2024-04-16T00:19:34.676Z,935.10
2024-04-16T00:19:44.852Z,935.11
2024-04-16T00:19:55.272Z,935.12
2024-04-16T00:20:05.674Z,935.12
2024-04-16T00:20:16.095Z,935.13
2024-04-16T00:20:26.490Z,935.12
2024-04-16T00:20:36.881Z,935.12
2024-04-16T00:20:47.270Z,935.11
2024-04-16T00:20:57.709Z,935.05
2024-04-16T00:21:08.139Z,935.07
2024-04-16T00:21:18.625Z,935.10
2024-04-16T00:21:29.013Z,935.08
2024-04-16T00:21:39.404Z,935.10
2024-04-16T00:21:49.822Z,935.08
2024-04-16T00:22:00.389Z,935.07
2024-04-16T00:22:10.641Z,935.11
2024-04-16T00:22:20.822Z,935.12
2024-04-16T00:22:31.353Z,935.12
2024-04-16T00:22:41.556Z,935.11
2024-04-16T00:22:51.953Z,935.07
2024-04-16T00:23:02.373Z,935.09
2024-04-16T00:23:12.775Z,935.11
2024-04-16T00:23:23.038Z,935.12
2024-04-16T00:23:33.431Z,935.13
2024-04-16T00:23:43.837Z,935.13
2024-04-16T00:23:54.244Z,935.13
2024-04-16T00:24:04.639Z,935.11
2024-04-16T00:24:15.036Z,935.08
2024-04-16T00:24:25.469Z,935.06
2024-04-16T00:24:35.873Z,935.07
2024-04-16T00:24:46.267Z,935.07
2024-04-16T00:24:56.660Z,935.11
2024-04-16T00:25:07.115Z,935.12
2024-04-16T00:25:17.603Z,935.09
2024-04-16T00:25:28.052Z,935.03
2024-04-16T00:25:38.613Z,934.99
2024-04-16T00:25:48.771Z,934.97
2024-04-16T00:25:59.209Z,934.92
2024-04-16T00:26:09.600Z,934.93
2024-04-16T00:26:20.005Z,934.97
2024-04-16T00:26:30.414Z,934.98
2024-04-16T00:26:40.877Z,934.98
2024-04-16T00:26:51.067Z,934.99
2024-04-16T00:27:01.466Z,934.97
2024-04-16T00:27:11.883Z,934.94
2024-04-16T00:27:22.275Z,934.94
2024-04-16T00:27:32.696Z,934.96
2024-04-16T00:27:43.105Z,935.00
2024-04-16T00:27:53.489Z,934.94
2024-04-16T00:28:03.964Z,934.93
2024-04-16T00:28:14.459Z,934.91
2024-04-16T00:28:24.686Z,934.93
2024-04-16T00:28:35.136Z,934.96
2024-04-16T00:28:45.570Z,935.01
2024-04-16T00:30:01.345Z,934.96
2024-04-16T00:30:11.740Z,934.91
2024-04-16T00:30:22.141Z,934.93
2024-04-16T00:30:32.554Z,934.94
2024-04-16T00:30:42.962Z,934.93
2024-04-16T00:30:53.374Z,934.95
2024-04-16T00:31:03.811Z,934.95
2024-04-16T00:31:14.271Z,934.99
2024-04-16T00:31:24.762Z,934.99
2024-04-16T00:31:35.073Z,934.98
2024-04-16T00:31:45.325Z,934.99
2024-04-16T00:31:55.567Z,935.00
2024-04-16T00:32:05.995Z,935.02
2024-04-16T00:32:16.575Z,935.01
2024-04-16T00:32:26.960Z,935.01
2024-04-16T00:32:37.184Z,935.02
2024-04-16T00:32:47.431Z,935.06
2024-04-16T00:32:57.864Z,935.08
2024-04-16T00:33:08.360Z,935.11
2024-04-16T00:33:18.555Z,935.15
2024-04-16T00:33:28.950Z,935.17
2024-04-16T00:33:39.349Z,935.09
2024-04-16T00:33:49.781Z,935.06
2024-04-16T00:34:00.261Z,935.11
2024-04-16T00:34:10.697Z,935.10
2024-04-16T00:34:21.102Z,935.12
2024-04-16T00:34:31.660Z,935.12
2024-04-16T00:34:42.005Z,935.10
2024-04-16T00:34:52.166Z,935.07
2024-04-16T00:35:02.589Z,935.07
2024-04-16T00:35:13.009Z,935.07
2024-04-16T00:35:23.384Z,935.11
2024-04-16T00:35:33.770Z,935.11
2024-04-16T00:35:44.218Z,935.10
2024-04-16T00:35:54.473Z,935.09
2024-04-16T00:36:04.865Z,935.10
2024-04-16T00:36:15.278Z,935.09
2024-04-16T00:36:25.679Z,935.09
2024-04-16T00:36:36.072Z,935.08
2024-04-16T00:36:46.488Z,935.08
2024-04-16T00:36:56.870Z,935.09
2024-04-16T00:37:07.282Z,935.08
2024-04-16T00:37:17.698Z,935.10
2024-04-16T00:37:28.177Z,935.08
2024-04-16T00:37:38.601Z,935.08
2024-04-16T00:37:49.026Z,935.07
2024-04-16T00:37:59.421Z,935.03
2024-04-16T00:38:09.849Z,935.03
2024-04-16T00:38:20.288Z,935.03
2024-04-16T00:38:30.673Z,935.04
2024-04-16T00:38:41.074Z,935.03
2024-04-16T00:38:51.464Z,935.03
2024-04-16T00:39:01.896Z,935.05
2024-04-16T00:39:12.331Z,935.06
2024-04-16T00:39:22.735Z,935.04
2024-04-16T00:39:33.128Z,935.05
2024-04-16T00:39:43.540Z,935.05
2024-04-16T00:39:53.929Z,935.03
2024-04-16T00:40:04.357Z,935.00
2024-04-16T00:40:14.805Z,935.02
2024-04-16T00:40:25.069Z,935.04
2024-04-16T00:41:44.447Z,935.00
2024-04-16T00:41:54.882Z,935.02
2024-04-16T00:42:05.266Z,934.99
2024-04-16T00:42:15.650Z,934.97
2024-04-16T00:42:26.143Z,934.96
2024-04-16T00:42:36.553Z,934.96
2024-04-16T00:42:46.948Z,934.99
2024-04-16T00:42:57.343Z,934.99
2024-04-16T00:43:07.810Z,934.99
2024-04-16T00:43:18.315Z,934.99
2024-04-16T00:43:28.573Z,934.98
2024-04-16T00:43:38.877Z,934.99
2024-04-16T00:43:49.020Z,934.97
2024-04-16T00:43:59.394Z,934.99
2024-04-16T00:44:09.808Z,935.00
2024-04-16T00:44:20.217Z,934.99
2024-04-16T00:44:30.630Z,934.98
2024-04-16T00:44:41.016Z,934.98
2024-04-16T00:44:51.418Z,934.97
2024-04-16T00:45:01.856Z,934.99
2024-04-16T00:45:12.253Z,934.99
2024-04-16T00:45:22.665Z,935.02
2024-04-16T00:45:33.063Z,935.00
2024-04-16T00:45:43.479Z,935.01
2024-04-16T00:45:53.892Z,935.00
2024-04-16T00:46:04.329Z,934.99
2024-04-16T00:46:14.779Z,934.98
2024-04-16T00:46:25.276Z,934.95
2024-04-16T00:46:35.759Z,934.96
2024-04-16T00:46:46.108Z,934.95
2024-04-16T00:46:56.581Z,934.98
2024-04-16T00:47:07.007Z,934.98
2024-04-16T00:47:17.416Z,934.93
2024-04-16T00:47:27.886Z,934.92
2024-04-16T00:47:38.424Z,934.89
2024-04-16T00:47:48.764Z,934.85
2024-04-16T00:47:59.087Z,934.83
2024-04-16T00:48:09.358Z,934.88
2024-04-16T00:48:19.544Z,934.90
2024-04-16T00:48:29.994Z,934.91
2024-04-16T00:48:40.213Z,934.92
2024-04-16T00:48:50.727Z,934.89
2024-04-16T00:49:00.883Z,934.88
2024-04-16T00:49:11.331Z,934.87
2024-04-16T00:49:21.758Z,934.88
2024-04-16T00:49:32.165Z,934.89
2024-04-16T00:49:42.571Z,934.90
2024-04-16T00:49:52.950Z,934.91
2024-04-16T00:50:03.397Z,934.91
2024-04-16T00:50:13.917Z,934.88
2024-04-16T00:50:24.060Z,934.87
2024-04-16T00:50:34.443Z,934.87
2024-04-16T00:50:44.834Z,934.86
2024-04-16T00:50:55.457Z,934.88
2024-04-16T00:51:05.662Z,934.85
2024-04-16T00:51:16.053Z,934.83
2024-04-16T00:51:26.439Z,934.82
2024-04-16T00:51:36.892Z,934.84
2024-04-16T00:51:47.278Z,934.82
2024-04-16T00:51:57.679Z,934.82
2024-04-16T00:52:08.020Z,934.83
2024-04-16T00:52:18.316Z,934.83
2024-04-16T00:52:28.588Z,934.86
2024-04-16T00:52:38.997Z,934.81
2024-04-16T00:52:50.387Z,934.81
2024-04-16T00:52:59.802Z,934.81
2024-04-16T00:53:10.259Z,934.79
2024-04-16T00:53:20.668Z,934.78
2024-04-16T00:53:31.061Z,934.80
2024-04-16T00:53:41.487Z,934.87
2024-04-16T00:53:51.879Z,934.90
2024-04-16T00:54:02.287Z,934.87
2024-04-16T00:54:12.692Z,934.83
2024-04-16T00:54:23.090Z,934.87
2024-04-16T00:54:33.497Z,934.89
2024-04-16T00:54:43.893Z,934.89
2024-04-16T00:54:54.313Z,934.92
2024-04-16T00:55:04.723Z,934.89
2024-04-16T00:55:15.149Z,934.90
2024-04-16T00:55:25.562Z,934.86
2024-04-16T00:55:36.054Z,934.87
2024-04-16T00:55:46.282Z,934.86
2024-04-16T00:55:56.654Z,934.83
2024-04-16T00:56:07.066Z,934.84
2024-04-16T00:56:17.487Z,934.86
2024-04-16T00:56:27.895Z,934.85
2024-04-16T00:56:38.305Z,934.84
2024-04-16T00:56:48.727Z,934.83
2024-04-16T00:56:59.116Z,934.84
2024-04-16T00:57:09.514Z,934.85
2024-04-16T00:57:19.974Z,934.86
2024-04-16T00:57:30.363Z,934.85
2024-04-16T00:57:40.779Z,934.85
2024-04-16T00:57:51.202Z,934.86
2024-04-16T00:58:01.656Z,934.87
2024-04-16T00:58:12.088Z,934.88
2024-04-16T01:01:02.240Z,934.87
2024-04-16T01:01:12.463Z,934.91
2024-04-16T01:01:22.966Z,934.94
2024-04-16T01:01:33.176Z,934.92
2024-04-16T01:01:43.681Z,934.91
2024-04-16T01:01:53.910Z,934.91
2024-04-16T01:02:04.308Z,934.89
2024-04-16T01:02:14.725Z,934.95
2024-04-16T01:02:25.130Z,934.94
2024-04-16T01:02:35.516Z,934.89
2024-04-16T01:02:45.998Z,934.94
2024-04-16T01:02:56.467Z,934.93
2024-04-16T01:03:06.907Z,934.93
2024-04-16T01:03:17.481Z,934.93
2024-04-16T01:03:27.744Z,934.93
2024-04-16T01:03:38.178Z,934.94
2024-04-16T01:03:48.620Z,934.91
2024-04-16T01:03:59.067Z,934.92
2024-04-16T01:04:09.564Z,934.95
2024-04-16T01:04:19.879Z,934.91
2024-04-16T01:04:30.195Z,934.92
2024-04-16T01:04:40.431Z,934.90
2024-04-16T01:04:50.719Z,934.90
2024-04-16T01:05:00.981Z,934.91
2024-04-16T01:05:11.230Z,934.88
2024-04-16T01:05:21.614Z,934.92
2024-04-16T01:05:32.040Z,934.90
2024-04-16T01:05:42.435Z,934.85
2024-04-16T01:05:52.899Z,934.95
2024-04-16T01:06:03.292Z,934.94
2024-04-16T01:06:13.715Z,934.88
2024-04-16T01:06:24.092Z,934.87
2024-04-16T01:06:34.521Z,934.85
2024-04-16T01:06:44.941Z,934.88
2024-04-16T01:06:55.334Z,934.88
2024-04-16T01:07:05.816Z,934.85
2024-04-16T01:07:16.001Z,934.87
2024-04-16T01:07:26.468Z,934.88
2024-04-16T01:07:36.725Z,934.87
2024-04-16T01:07:46.914Z,934.88
2024-04-16T01:07:57.345Z,934.89
2024-04-16T01:08:07.754Z,934.90
2024-04-16T01:08:18.139Z,934.89
2024-04-16T01:08:28.528Z,934.90
2024-04-16T01:08:38.928Z,934.90
2024-04-16T01:08:49.323Z,934.90
2024-04-16T01:08:59.709Z,934.90
2024-04-16T01:09:10.157Z,934.89
2024-04-16T01:09:20.554Z,934.90
2024-04-16T01:09:30.954Z,934.91
2024-04-16T01:09:41.327Z,934.90
2024-04-16T01:09:51.721Z,934.91
2024-04-16T01:10:02.222Z,934.91
2024-04-16T01:10:12.512Z,934.91
2024-04-16T01:10:22.942Z,934.91
2024-04-16T01:10:33.467Z,934.91
2024-04-16T01:10:43.748Z,934.90
2024-04-16T01:10:53.937Z,934.89
2024-04-16T01:11:04.362Z,934.89
2024-04-16T01:11:14.790Z,934.88
2024-04-16T01:11:25.304Z,934.88
2024-04-16T01:11:35.612Z,934.85
2024-04-16T01:11:45.775Z,934.87
2024-04-16T01:11:56.238Z,934.89
2024-04-16T01:12:06.633Z,934.89
2024-04-16T01:12:17.036Z,934.89
2024-04-16T01:12:27.442Z,934.88
2024-04-16T01:12:37.854Z,934.87
2024-04-16T01:12:48.275Z,934.87
2024-04-16T01:12:58.688Z,934.89
2024-04-16T01:13:09.133Z,934.86
2024-04-16T01:13:19.546Z,934.86
2024-04-16T01:13:29.980Z,934.88
2024-04-16T01:13:40.433Z,934.87
2024-04-16T01:13:50.845Z,934.86
2024-04-16T01:14:01.261Z,934.88
2024-04-16T01:14:11.714Z,934.86
2024-04-16T01:14:22.101Z,934.86
2024-04-16T01:14:32.513Z,934.89
2024-04-16T01:14:42.928Z,934.90
2024-04-16T01:14:53.339Z,934.92
2024-04-16T01:15:03.761Z,934.89
2024-04-16T01:15:14.154Z,934.90
2024-04-16T01:15:24.553Z,934.89
2024-04-16T01:15:34.947Z,934.88
2024-04-16T01:15:45.353Z,934.87
2024-04-16T01:15:55.666Z,934.90
2024-04-16T01:16:06.108Z,934.89
2024-04-16T01:16:16.530Z,934.88
2024-04-16T01:16:26.978Z,934.87
2024-04-16T01:16:37.396Z,934.90
2024-04-16T01:16:47.797Z,934.92
2024-04-16T01:16:58.180Z,934.91
2024-04-16T01:17:08.561Z,934.90
2024-04-16T01:17:19.079Z,934.88
2024-04-16T01:17:29.323Z,934.88
2024-04-16T01:17:39.839Z,934.87
2024-04-16T01:17:50.047Z,934.87
2024-04-16T01:18:00.578Z,934.86
2024-04-16T01:18:10.833Z,934.85
2024-04-16T01:18:21.140Z,934.89
2024-04-16T01:18:31.434Z,934.88
2024-04-16T01:18:41.983Z,934.88
2024-04-16T01:18:52.145Z,934.88
2024-04-16T01:19:02.583Z,934.90
2024-04-16T01:19:13.063Z,934.91
2024-04-16T01:19:23.340Z,934.91
2024-04-16T01:19:33.862Z,934.88
2024-04-16T01:19:44.109Z,934.89
2024-04-16T01:19:54.552Z,934.88
2024-04-16T01:20:04.986Z,934.90
2024-04-16T01:20:15.387Z,934.89
2024-04-16T01:20:25.812Z,934.90
2024-04-16T01:20:36.211Z,934.91
2024-04-16T01:20:46.606Z,934.91
2024-04-16T01:20:56.996Z,934.91
2024-04-16T01:21:07.420Z,934.91
2024-04-16T01:21:17.806Z,934.89
2024-04-16T01:21:28.206Z,934.89
2024-04-16T01:21:38.614Z,934.85
2024-04-16T01:21:49.012Z,934.85
2024-04-16T01:21:59.429Z,934.86
2024-04-16T01:22:09.866Z,934.85
2024-04-16T01:22:20.303Z,934.86
2024-04-16T01:22:30.825Z,934.84
2024-04-16T01:22:41.018Z,934.85
2024-04-16T01:22:51.397Z,934.83
2024-04-16T01:23:01.794Z,934.83
2024-04-16T01:23:12.278Z,934.84
2024-04-16T01:23:22.680Z,934.82
2024-04-16T01:23:33.068Z,934.82
2024-04-16T01:23:43.496Z,934.82
2024-04-16T01:23:53.903Z,934.81
2024-04-16T01:24:04.320Z,934.80
2024-04-16T01:24:14.724Z,934.83
2024-04-16T01:24:25.122Z,934.82
2024-04-16T01:24:35.592Z,934.81
2024-04-16T01:24:45.993Z,934.80
2024-04-16T01:24:56.375Z,934.81
2024-04-16T01:25:06.799Z,934.80
2024-04-16T01:25:17.277Z,934.81
2024-04-16T01:25:27.738Z,934.80
2024-04-16T01:25:37.954Z,934.79
2024-04-16T01:25:48.399Z,934.81
2024-04-16T01:25:58.790Z,934.79
2024-04-16T01:26:09.198Z,934.78
2024-04-16T01:26:19.597Z,934.77
2024-04-16T01:26:30.037Z,934.78
2024-04-16T01:26:40.438Z,934.78
2024-04-16T01:26:50.825Z,934.77
2024-04-16T01:27:01.218Z,934.77
2024-04-16T01:27:11.606Z,934.78
2024-04-16T01:27:22.033Z,934.78
2024-04-16T01:27:32.448Z,934.77
2024-04-16T01:29:58.998Z,934.77
2024-04-16T01:30:09.384Z,934.76
2024-04-16T01:30:19.841Z,934.76
2024-04-16T01:30:30.266Z,934.73
2024-04-16T01:30:40.653Z,934.69
2024-04-16T01:30:51.090Z,934.71
2024-04-16T01:31:01.553Z,934.72
2024-04-16T01:31:11.969Z,934.73
2024-04-16T01:31:24.275Z,934.73
2024-04-16T01:31:32.715Z,934.68
2024-04-16T01:34:30.564Z,934.73
2024-04-16T01:34:41.046Z,934.71
2024-04-16T01:34:51.459Z,934.66
2024-04-16T01:35:01.867Z,934.66
2024-04-16T01:35:12.317Z,934.68
2024-04-16T01:35:22.712Z,934.67
2024-04-16T01:35:33.175Z,934.69
2024-04-16T01:35:43.584Z,934.64
2024-04-16T01:35:53.985Z,934.63
2024-04-16T01:36:04.386Z,934.63
2024-04-16T01:36:14.814Z,934.62
2024-04-16T01:36:25.199Z,934.62
2024-04-16T01:36:35.663Z,934.63
2024-04-16T01:36:46.075Z,934.62
2024-04-16T01:36:56.532Z,934.62
2024-04-16T01:37:06.982Z,934.64
2024-04-16T01:37:17.423Z,934.64
2024-04-16T01:37:27.886Z,934.64
2024-04-16T01:37:38.112Z,934.63
2024-04-16T01:37:48.543Z,934.62
2024-04-16T01:37:58.983Z,934.61
2024-04-16T01:38:09.391Z,934.63
2024-04-16T01:38:19.776Z,934.64
2024-04-16T01:38:30.161Z,934.66
2024-04-16T01:38:40.548Z,934.68
2024-04-16T01:38:50.984Z,934.66
2024-04-16T01:39:01.411Z,934.65
2024-04-16T01:39:11.873Z,934.66
2024-04-16T01:39:22.258Z,934.68
2024-04-16T01:39:34.303Z,934.67
2024-04-16T01:39:43.142Z,934.64
2024-04-16T01:39:53.515Z,934.63
2024-04-16T01:41:36.588Z,934.60
2024-04-16T01:41:47.018Z,934.59
2024-04-16T01:42:09.056Z,934.57
2024-04-16T01:42:09.621Z,934.57
2024-04-16T01:42:20.030Z,934.57
2024-04-16T01:42:30.442Z,934.58
2024-04-16T01:42:40.843Z,934.58
2024-04-16T01:42:51.264Z,934.59
2024-04-16T01:43:12.107Z,934.59
2024-04-16T01:43:22.532Z,934.60
2024-04-16T01:43:32.944Z,934.58
2024-04-16T01:43:43.490Z,934.59
2024-04-16T01:43:53.629Z,934.60
2024-04-16T01:44:04.102Z,934.61
2024-04-16T01:44:14.388Z,934.62
2024-04-16T01:44:24.779Z,934.60
2024-04-16T01:44:35.219Z,934.58
2024-04-16T01:44:45.613Z,934.58
2024-04-16T01:44:56.035Z,934.60
2024-04-16T01:45:06.416Z,934.59
2024-04-16T01:45:16.817Z,934.59
2024-04-16T01:45:27.243Z,934.60
2024-04-16T01:45:37.639Z,934.59
2024-04-16T01:45:48.044Z,934.59
2024-04-16T01:45:58.504Z,934.59
2024-04-16T01:46:08.951Z,934.59
2024-04-16T01:46:19.449Z,934.58
2024-04-16T01:46:29.924Z,934.59
2024-04-16T01:46:40.352Z,934.55
2024-04-16T01:46:50.771Z,934.57
2024-04-16T01:47:01.284Z,934.57
2024-04-16T01:47:11.535Z,934.59
2024-04-16T01:47:21.762Z,934.60
2024-04-16T01:47:32.234Z,934.58
2024-04-16T01:47:42.713Z,934.58
2024-04-16T01:47:53.413Z,934.58
2024-04-16T01:48:03.528Z,934.58
2024-04-16T01:48:13.943Z,934.57
2024-04-16T01:48:24.199Z,934.57
2024-04-16T01:48:34.665Z,934.56
2024-04-16T01:48:45.053Z,934.55
2024-04-16T01:48:57.044Z,934.55
2024-04-16T01:49:05.828Z,934.55
2024-04-16T01:49:16.267Z,934.55
2024-04-16T01:49:26.698Z,934.54
2024-04-16T01:49:37.203Z,934.55
2024-04-16T01:49:47.410Z,934.54
2024-04-16T01:49:57.822Z,934.55
2024-04-16T01:50:08.211Z,934.56
2024-04-16T01:50:18.638Z,934.57
2024-04-16T01:50:29.080Z,934.57
2024-04-16T01:50:39.510Z,934.55
2024-04-16T01:50:49.948Z,934.52
2024-04-16T01:51:00.448Z,934.52
2024-04-16T01:51:10.674Z,934.51
2024-04-16T01:51:21.066Z,934.52
2024-04-16T01:51:31.474Z,934.54
2024-04-16T01:51:41.859Z,934.52
2024-04-16T01:51:52.289Z,934.52
2024-04-16T01:52:02.702Z,934.53
2024-04-16T01:52:13.219Z,934.50
2024-04-16T01:52:23.371Z,934.50
2024-04-16T01:52:33.881Z,934.51
2024-04-16T01:52:44.074Z,934.49
2024-04-16T01:52:54.483Z,934.48
2024-04-16T01:53:04.940Z,934.44
2024-04-16T01:53:15.318Z,934.49
2024-04-16T01:53:25.757Z,934.49
2024-04-16T01:53:36.178Z,934.46
2024-04-16T01:53:46.563Z,934.46
2024-04-16T01:53:57.035Z,934.44
2024-04-16T01:54:07.418Z,934.43
2024-04-16T01:54:17.802Z,934.45
2024-04-16T01:54:28.198Z,934.48
2024-04-16T01:54:38.600Z,934.48
2024-04-16T01:54:49.019Z,934.45
2024-04-16T01:54:59.438Z,934.47
2024-04-16T01:55:09.877Z,934.45
2024-04-16T01:55:20.361Z,934.46
2024-04-16T01:55:30.862Z,934.47
2024-04-16T01:55:41.093Z,934.42
2024-04-16T01:55:51.489Z,934.44
2024-04-16T01:57:07.216Z,934.45
2024-04-16T01:57:17.648Z,934.43
2024-04-16T01:57:28.029Z,934.41
2024-04-16T01:57:38.439Z,934.39
2024-04-16T01:57:48.824Z,934.39
2024-04-16T01:57:59.312Z,934.42
2024-04-16T01:58:09.732Z,934.43
2024-04-16T01:58:20.242Z,934.42
2024-04-16T01:58:30.525Z,934.42
2024-04-16T01:58:40.733Z,934.44
2024-04-16T01:58:51.124Z,934.43
2024-04-16T01:59:01.510Z,934.41
2024-04-16T01:59:12.005Z,934.42
2024-04-16T01:59:22.391Z,934.46
2024-04-16T01:59:32.789Z,934.48
2024-04-16T01:59:43.331Z,934.46
2024-04-16T01:59:53.494Z,934.44
2024-04-16T02:00:03.923Z,934.43
2024-04-16T02:00:14.354Z,934.44
2024-04-16T02:00:24.793Z,934.45
2024-04-16T02:00:35.264Z,934.45
2024-04-16T02:00:45.514Z,934.43
2024-04-16T02:00:55.952Z,934.41
2024-04-16T02:01:06.431Z,934.44
2024-04-16T02:01:17.055Z,934.45
2024-04-16T02:01:27.292Z,934.45
2024-04-16T02:01:37.811Z,934.45
2024-04-16T02:01:48.271Z,934.46
2024-04-16T02:01:58.574Z,934.45
2024-04-16T02:02:09.040Z,934.45
2024-04-16T02:02:19.440Z,934.41
2024-04-16T02:02:29.848Z,934.42
2024-04-16T02:02:40.302Z,934.42
2024-04-16T02:02:50.735Z,934.41
2024-04-16T02:03:01.192Z,934.41
2024-04-16T02:03:11.676Z,934.40
2024-04-16T02:03:21.931Z,934.41
2024-04-16T02:03:32.353Z,934.42
2024-04-16T02:03:42.782Z,934.43
2024-04-16T02:03:53.185Z,934.42
2024-04-16T02:04:03.730Z,934.41
2024-04-16T02:04:14.050Z,934.41
2024-04-16T02:04:24.374Z,934.41
2024-04-16T02:04:34.621Z,934.39
2024-04-16T02:04:44.938Z,934.37
2024-04-16T02:04:55.132Z,934.40
2024-04-16T02:05:05.641Z,934.43
2024-04-16T02:05:15.931Z,934.40
2024-04-16T02:05:26.316Z,934.43
2024-04-16T02:05:36.714Z,934.46
2024-04-16T02:05:47.108Z,934.45
2024-04-16T02:05:57.509Z,934.40
2024-04-16T02:06:07.921Z,934.32
2024-04-16T02:06:18.341Z,934.35
2024-04-16T02:06:28.771Z,934.39
2024-04-16T02:06:39.256Z,934.41
2024-04-16T02:06:49.644Z,934.39
2024-04-16T02:07:00.063Z,934.38
2024-04-16T02:07:10.498Z,934.36
2024-04-16T02:07:20.939Z,934.35
2024-04-16T02:07:31.449Z,934.36
2024-04-16T02:07:41.665Z,934.40
2024-04-16T02:07:52.097Z,934.41
2024-04-16T02:08:02.479Z,934.43
2024-04-16T02:08:12.893Z,934.44
2024-04-16T02:08:23.292Z,934.42
2024-04-16T02:08:33.696Z,934.41
2024-04-16T02:08:44.121Z,934.40
2024-04-16T02:08:54.542Z,934.39
2024-04-16T02:09:04.964Z,934.39
2024-04-16T02:09:15.382Z,934.41
2024-04-16T02:09:25.809Z,934.43
2024-04-16T02:09:36.210Z,934.41
2024-04-16T02:09:46.602Z,934.44
2024-04-16T02:09:57.070Z,934.44
2024-04-16T02:10:07.470Z,934.44
2024-04-16T02:10:18.022Z,934.41
2024-04-16T02:10:28.235Z,934.46
2024-04-16T02:10:38.723Z,934.45
2024-04-16T02:10:49.185Z,934.44
2024-04-16T02:10:59.613Z,934.47
2024-04-16T02:11:10.021Z,934.47
2024-04-16T02:11:20.415Z,934.47
2024-04-16T02:11:30.869Z,934.47
2024-04-16T02:11:41.276Z,934.46
2024-04-16T02:11:51.717Z,934.46
2024-04-16T02:12:01.984Z,934.47
2024-04-16T02:12:12.389Z,934.48
2024-04-16T02:12:22.800Z,934.49
2024-04-16T02:12:33.191Z,934.45
2024-04-16T02:12:43.583Z,934.44
2024-04-16T02:12:53.979Z,934.42
2024-04-16T02:13:04.430Z,934.44
2024-04-16T02:13:14.888Z,934.45
2024-04-16T02:13:25.323Z,934.44
2024-04-16T02:13:35.786Z,934.44
2024-04-16T02:13:46.010Z,934.44
2024-04-16T02:13:56.399Z,934.41
2024-04-16T02:14:06.783Z,934.38
2024-04-16T02:14:17.210Z,934.38
2024-04-16T02:14:27.633Z,934.39
2024-04-16T02:14:38.049Z,934.40
2024-04-16T02:14:48.451Z,934.38
2024-04-16T02:14:58.868Z,934.37
2024-04-16T02:15:09.193Z,934.39
2024-04-16T02:15:19.624Z,934.37
2024-04-16T02:15:30.033Z,934.39
2024-04-16T02:17:48.012Z,934.40
2024-04-16T02:17:58.517Z,934.44
2024-04-16T02:18:08.825Z,934.45
2024-04-16T02:18:19.108Z,934.44
2024-04-16T02:18:29.433Z,934.44
2024-04-16T02:18:39.737Z,934.47
2024-04-16T02:18:49.921Z,934.49
2024-04-16T02:19:00.405Z,934.43
2024-04-16T02:19:10.598Z,934.35
2024-04-16T02:19:21.016Z,934.39
2024-04-16T02:19:31.477Z,934.43
2024-04-16T02:19:42.063Z,934.43
2024-04-16T02:19:52.222Z,934.41
2024-04-16T02:20:02.607Z,934.42
2024-04-16T02:20:13.067Z,934.41
2024-04-16T02:20:23.467Z,934.44
2024-04-16T02:20:33.905Z,934.38
2024-04-16T02:20:44.306Z,934.36
2024-04-16T02:20:54.732Z,934.39
2024-04-16T02:21:05.162Z,934.40
2024-04-16T02:21:15.547Z,934.36
2024-04-16T02:21:25.941Z,934.40
2024-04-16T02:21:36.314Z,934.42
2024-04-16T02:21:46.750Z,934.37
2024-04-16T02:21:59.768Z,934.31
2024-04-16T02:22:07.482Z,934.31
2024-04-16T02:22:18.026Z,934.32
2024-04-16T02:22:28.332Z,934.31
2024-04-16T02:22:38.830Z,934.33
2024-04-16T02:22:49.044Z,934.33
2024-04-16T02:22:59.430Z,934.30
2024-04-16T02:23:09.849Z,934.32
2024-04-16T02:23:20.274Z,934.35
2024-04-16T02:23:30.670Z,934.37
2024-04-16T02:23:41.076Z,934.39
2024-04-16T02:23:51.484Z,934.41
2024-04-16T02:24:02.032Z,934.38
2024-04-16T02:24:12.185Z,934.33
2024-04-16T02:24:22.596Z,934.29
2024-04-16T02:24:33.031Z,934.34
2024-04-16T02:25:52.281Z,934.42